sensor_id;sensor_type;location;lat;lon;timestamp;pressure;altitude;pressure_sealevel;temperature;humidity
42111;BME280;27766;52.174;5.456;2023-08-21T00:00:46;102240.03;;;19.17;nan
42111;BME280;27766;52.174;5.456;2023-08-21T00:03:13;102246.19;;;19.19;nan
42111;BME280;27766;52.174;5.456;2023-08-21T00:05:40;102246.19;;;19.19;nan
42111;BME280;27766;52.174;5.456;2023-08-21T00:08:08;102246.19;;;19.19;nan
42111;BME280;27766;52.174;5.456;2023-08-21T00:10:37;102239.16;;;19.15;nan
42111;BME280;27766;52.174;5.456;2023-08-21T00:13:05;102246.16;;;19.14;nan
42111;BME280;27766;52.174;5.456;2023-08-21T00:15:32;102242.66;;;19.12;nan
42111;BME280;27766;52.174;5.456;2023-08-21T00:18:00;102249.69;;;19.18;nan
42111;BME280;27766;52.174;5.456;2023-08-21T00:20:28;102251.41;;;19.16;nan
42111;BME280;27766;52.174;5.456;2023-08-21T00:22:55;102251.41;;;19.18;nan
42111;BME280;27766;52.174;5.456;2023-08-21T00:25:22;102260.16;;;19.20;nan
42111;BME280;27766;52.174;5.456;2023-08-21T00:27:49;102258.41;;;19.16;nan
42111;BME280;27766;52.174;5.456;2023-08-21T00:30:17;102260.16;;;19.13;nan
42111;BME280;27766;52.174;5.456;2023-08-21T00:32:44;102255.75;;;19.12;nan
42111;BME280;27766;52.174;5.456;2023-08-21T00:35:11;102251.41;;;19.14;nan
42111;BME280;27766;52.174;5.456;2023-08-21T00:37:38;102241.72;;;19.06;nan
42111;BME280;27766;52.174;5.456;2023-08-21T00:40:06;102247.84;;;19.05;nan
42111;BME280;27766;52.174;5.456;2023-08-21T00:42:34;102242.59;;;19.03;nan
42111;BME280;27766;52.174;5.456;2023-08-21T00:45:01;102243.50;;;19.04;nan
42111;BME280;27766;52.174;5.456;2023-08-21T00:47:30;102251.34;;;18.99;nan
42111;BME280;27766;52.174;5.456;2023-08-21T00:49:57;102243.47;;;19.01;nan
42111;BME280;27766;52.174;5.456;2023-08-21T00:52:24;102235.59;;;19.02;nan
42111;BME280;27766;52.174;5.456;2023-08-21T00:54:52;102234.72;;;19.03;nan
42111;BME280;27766;52.174;5.456;2023-08-21T00:57:19;102238.25;;;19.10;nan
42111;BME280;27766;52.174;5.456;2023-08-21T00:59:47;102240.91;;;19.16;nan
42111;BME280;27766;52.174;5.456;2023-08-21T01:02:15;102231.31;;;19.18;nan
42111;BME280;27766;52.174;5.456;2023-08-21T01:04:42;102233.06;;;19.19;nan
42111;BME280;27766;52.174;5.456;2023-08-21T01:07:10;102230.41;;;19.18;nan
42111;BME280;27766;52.174;5.456;2023-08-21T01:09:50;102222.53;;;19.10;nan
42111;BME280;27766;52.174;5.456;2023-08-21T01:12:52;102234.78;;;19.11;nan
42111;BME280;27766;52.174;5.456;2023-08-21T01:15:24;102233.00;;;19.07;nan
42111;BME280;27766;52.174;5.456;2023-08-21T01:17:52;102236.44;;;19.00;nan
42111;BME280;27766;52.174;5.456;2023-08-21T01:20:20;102242.56;;;18.97;nan
42111;BME280;27766;52.174;5.456;2023-08-21T01:22:48;102243.44;;;18.94;nan
42111;BME280;27766;52.174;5.456;2023-08-21T01:25:17;102237.28;;;18.92;nan
42111;BME280;27766;52.174;5.456;2023-08-21T01:27:48;102232.88;;;18.91;nan
42111;BME280;27766;52.174;5.456;2023-08-21T01:30:17;102227.63;;;18.88;nan
42111;BME280;27766;52.174;5.456;2023-08-21T01:33:02;102235.56;;;18.96;nan
42111;BME280;27766;52.174;5.456;2023-08-21T01:35:33;102241.69;;;19.00;nan
42111;BME280;27766;52.174;5.456;2023-08-21T01:38:03;102244.34;;;19.04;nan
42111;BME280;27766;52.174;5.456;2023-08-21T01:40:31;102240.84;;;19.07;nan
42111;BME280;27766;52.174;5.456;2023-08-21T01:42:58;102242.66;;;19.11;nan
42111;BME280;27766;52.174;5.456;2023-08-21T01:45:26;102244.38;;;19.12;nan
42111;BME280;27766;52.174;5.456;2023-08-21T01:47:53;102240.03;;;19.17;nan
42111;BME280;27766;52.174;5.456;2023-08-21T01:50:20;102238.31;;;19.22;nan
42111;BME280;27766;52.174;5.456;2023-08-21T01:52:47;102236.53;;;19.21;nan
42111;BME280;27766;52.174;5.456;2023-08-21T01:55:15;102252.28;;;19.21;nan
42111;BME280;27766;52.174;5.456;2023-08-21T01:57:42;102247.91;;;19.19;nan
42111;BME280;27766;52.174;5.456;2023-08-21T02:00:10;102241.78;;;19.17;nan
42111;BME280;27766;52.174;5.456;2023-08-21T02:02:38;102240.03;;;19.19;nan
42111;BME280;27766;52.174;5.456;2023-08-21T02:05:06;102243.56;;;19.19;nan
42111;BME280;27766;52.174;5.456;2023-08-21T02:07:33;102245.28;;;19.17;nan
42111;BME280;27766;52.174;5.456;2023-08-21T02:10:00;102253.16;;;19.16;nan
42111;BME280;27766;52.174;5.456;2023-08-21T02:12:28;102248.78;;;19.16;nan
42111;BME280;27766;52.174;5.456;2023-08-21T02:14:55;102248.78;;;19.16;nan
42111;BME280;27766;52.174;5.456;2023-08-21T02:17:26;102247.91;;;19.16;nan
42111;BME280;27766;52.174;5.456;2023-08-21T02:19:53;102247.00;;;19.09;nan
42111;BME280;27766;52.174;5.456;2023-08-21T02:22:20;102243.47;;;19.02;nan
42111;BME280;27766;52.174;5.456;2023-08-21T02:24:48;102241.69;;;18.96;nan
42111;BME280;27766;52.174;5.456;2023-08-21T02:27:15;102245.09;;;18.89;nan
42111;BME280;27766;52.174;5.456;2023-08-21T02:29:43;102241.59;;;18.81;nan
42111;BME280;27766;52.174;5.456;2023-08-21T02:32:10;102241.59;;;18.81;nan
42111;BME280;27766;52.174;5.456;2023-08-21T02:34:37;102239.81;;;18.80;nan
42111;BME280;27766;52.174;5.456;2023-08-21T02:37:06;102238.06;;;18.79;nan
42111;BME280;27766;52.174;5.456;2023-08-21T02:39:33;102239.78;;;18.78;nan
42111;BME280;27766;52.174;5.456;2023-08-21T02:42:01;102243.31;;;18.79;nan
42111;BME280;27766;52.174;5.456;2023-08-21T02:44:28;102232.78;;;18.74;nan
42111;BME280;27766;52.174;5.456;2023-08-21T02:46:55;102236.31;;;18.76;nan
42111;BME280;27766;52.174;5.456;2023-08-21T02:49:23;102240.63;;;18.71;nan
42111;BME280;27766;52.174;5.456;2023-08-21T02:51:50;102244.16;;;18.72;nan
42111;BME280;27766;52.174;5.456;2023-08-21T02:54:17;102252.88;;;18.71;nan
42111;BME280;27766;52.174;5.456;2023-08-21T02:56:45;102249.34;;;18.67;nan
42111;BME280;27766;52.174;5.456;2023-08-21T02:59:12;102244.94;;;18.63;nan
42111;BME280;27766;52.174;5.456;2023-08-21T03:01:39;102243.19;;;18.60;nan
42111;BME280;27766;52.174;5.456;2023-08-21T03:04:07;102245.81;;;18.60;nan
42111;BME280;27766;52.174;5.456;2023-08-21T03:06:34;102244.06;;;18.62;nan
42111;BME280;27766;52.174;5.456;2023-08-21T03:09:01;102240.63;;;18.68;nan
42111;BME280;27766;52.174;5.456;2023-08-21T03:11:28;102240.63;;;18.71;nan
42111;BME280;27766;52.174;5.456;2023-08-21T03:13:56;102242.38;;;18.72;nan
42111;BME280;27766;52.174;5.456;2023-08-21T03:16:23;102249.38;;;18.72;nan
42111;BME280;27766;52.174;5.456;2023-08-21T03:18:55;102246.72;;;18.69;nan
42111;BME280;27766;52.174;5.456;2023-08-21T03:21:23;102238.84;;;18.61;nan
42111;BME280;27766;52.174;5.456;2023-08-21T03:23:54;102239.66;;;18.58;nan
42111;BME280;27766;52.174;5.456;2023-08-21T03:26:22;102238.78;;;18.58;nan
42111;BME280;27766;52.174;5.456;2023-08-21T03:28:50;102240.56;;;18.59;nan
42111;BME280;27766;52.174;5.456;2023-08-21T03:31:17;102238.78;;;18.59;nan
42111;BME280;27766;52.174;5.456;2023-08-21T03:33:44;102239.69;;;18.60;nan
42111;BME280;27766;52.174;5.456;2023-08-21T03:36:11;102242.31;;;18.63;nan
42111;BME280;27766;52.174;5.456;2023-08-21T03:38:38;102234.44;;;18.61;nan
42111;BME280;27766;52.174;5.456;2023-08-21T03:41:06;102232.72;;;18.63;nan
42111;BME280;27766;52.174;5.456;2023-08-21T03:43:33;102234.47;;;18.66;nan
42111;BME280;27766;52.174;5.456;2023-08-21T03:46:00;102231.00;;;18.65;nan
42111;BME280;27766;52.174;5.456;2023-08-21T03:48:28;102234.50;;;18.71;nan
42111;BME280;27766;52.174;5.456;2023-08-21T03:50:55;102225.75;;;18.70;nan
42111;BME280;27766;52.174;5.456;2023-08-21T03:53:23;102229.31;;;18.77;nan
42111;BME280;27766;52.174;5.456;2023-08-21T03:55:50;102231.06;;;18.78;nan
42111;BME280;27766;52.174;5.456;2023-08-21T03:58:17;102228.44;;;18.79;nan
42111;BME280;27766;52.174;5.456;2023-08-21T04:00:45;102231.97;;;18.81;nan
42111;BME280;27766;52.174;5.456;2023-08-21T04:03:12;102230.19;;;18.79;nan
42111;BME280;27766;52.174;5.456;2023-08-21T04:05:39;102228.41;;;18.75;nan
42111;BME280;27766;52.174;5.456;2023-08-21T04:08:07;102237.13;;;18.72;nan
42111;BME280;27766;52.174;5.456;2023-08-21T04:10:34;102229.22;;;18.60;nan
42111;BME280;27766;52.174;5.456;2023-08-21T04:13:01;102229.22;;;18.61;nan
42111;BME280;27766;52.174;5.456;2023-08-21T04:15:30;102237.06;;;18.63;nan
42111;BME280;27766;52.174;5.456;2023-08-21T04:17:58;102239.69;;;18.61;nan
42111;BME280;27766;52.174;5.456;2023-08-21T04:20:25;102245.81;;;18.60;nan
42111;BME280;27766;52.174;5.456;2023-08-21T04:22:53;102240.56;;;18.60;nan
42111;BME280;27766;52.174;5.456;2023-08-21T04:25:20;102230.97;;;18.62;nan
42111;BME280;27766;52.174;5.456;2023-08-21T04:27:47;102242.31;;;18.63;nan
42111;BME280;27766;52.174;5.456;2023-08-21T04:30:15;102251.97;;;18.70;nan
42111;BME280;27766;52.174;5.456;2023-08-21T04:32:43;102249.38;;;18.73;nan
42111;BME280;27766;52.174;5.456;2023-08-21T04:35:10;102251.19;;;18.79;nan
42111;BME280;27766;52.174;5.456;2023-08-21T04:37:39;102257.31;;;18.81;nan
42111;BME280;27766;52.174;5.456;2023-08-21T04:40:11;102254.66;;;18.76;nan
42111;BME280;27766;52.174;5.456;2023-08-21T04:42:38;102256.38;;;18.76;nan
42111;BME280;27766;52.174;5.456;2023-08-21T04:45:06;102254.63;;;18.75;nan
42111;BME280;27766;52.174;5.456;2023-08-21T04:47:33;102255.50;;;18.72;nan
42111;BME280;27766;52.174;5.456;2023-08-21T04:50:01;102251.97;;;18.69;nan
42111;BME280;27766;52.174;5.456;2023-08-21T04:52:28;102251.06;;;18.63;nan
42111;BME280;27766;52.174;5.456;2023-08-21T04:54:56;102260.63;;;18.57;nan
42111;BME280;27766;52.174;5.456;2023-08-21T04:57:23;102266.69;;;18.49;nan
42111;BME280;27766;52.174;5.456;2023-08-21T04:59:50;102271.94;;;18.48;nan
42111;BME280;27766;52.174;5.456;2023-08-21T05:02:18;102268.41;;;18.46;nan
42111;BME280;27766;52.174;5.456;2023-08-21T05:04:45;102264.06;;;18.49;nan
42111;BME280;27766;52.174;5.456;2023-08-21T05:07:13;102265.78;;;18.46;nan
42111;BME280;27766;52.174;5.456;2023-08-21T05:09:40;102262.31;;;18.47;nan
42111;BME280;27766;52.174;5.456;2023-08-21T05:12:07;102265.84;;;18.49;nan
42111;BME280;27766;52.174;5.456;2023-08-21T05:14:35;102269.34;;;18.53;nan
42111;BME280;27766;52.174;5.456;2023-08-21T05:17:03;102269.34;;;18.53;nan
42111;BME280;27766;52.174;5.456;2023-08-21T05:19:30;102274.63;;;18.57;nan
42111;BME280;27766;52.174;5.456;2023-08-21T05:21:58;102269.41;;;18.57;nan
42111;BME280;27766;52.174;5.456;2023-08-21T05:24:25;102268.50;;;18.58;nan
42111;BME280;27766;52.174;5.456;2023-08-21T05:26:53;102272.00;;;18.59;nan
42111;BME280;27766;52.174;5.456;2023-08-21T05:29:20;102273.78;;;18.63;nan
42111;BME280;27766;52.174;5.456;2023-08-21T05:31:47;102265.06;;;18.64;nan
42111;BME280;27766;52.174;5.456;2023-08-21T05:34:15;102274.72;;;18.71;nan
42111;BME280;27766;52.174;5.456;2023-08-21T05:36:42;102270.38;;;18.73;nan
42111;BME280;27766;52.174;5.456;2023-08-21T05:39:10;102269.53;;;18.82;nan
42111;BME280;27766;52.174;5.456;2023-08-21T05:41:37;102273.94;;;18.88;nan
42111;BME280;27766;52.174;5.456;2023-08-21T05:44:04;102276.56;;;18.89;nan
42111;BME280;27766;52.174;5.456;2023-08-21T05:46:32;102270.53;;;18.93;nan
42111;BME280;27766;52.174;5.456;2023-08-21T05:48:59;102273.19;;;18.96;nan
42111;BME280;27766;52.174;5.456;2023-08-21T05:51:26;102267.91;;;18.93;nan
42111;BME280;27766;52.174;5.456;2023-08-21T05:53:53;102272.31;;;19.01;nan
42111;BME280;27766;52.174;5.456;2023-08-21T05:56:21;102272.34;;;19.07;nan
42111;BME280;27766;52.174;5.456;2023-08-21T05:58:49;102275.03;;;19.18;nan
42111;BME280;27766;52.174;5.456;2023-08-21T06:01:16;102275.94;;;19.23;nan
42111;BME280;27766;52.174;5.456;2023-08-21T06:03:44;102278.56;;;19.26;nan
42111;BME280;27766;52.174;5.456;2023-08-21T06:06:11;102285.59;;;19.32;nan
42111;BME280;27766;52.174;5.456;2023-08-21T06:08:39;102284.75;;;19.39;nan
42111;BME280;27766;52.174;5.456;2023-08-21T06:11:06;102292.63;;;19.39;nan
42111;BME280;27766;52.174;5.456;2023-08-21T06:13:33;102269.03;;;19.42;nan
42111;BME280;27766;52.174;5.456;2023-08-21T06:16:01;102280.47;;;19.63;nan
42111;BME280;27766;52.174;5.456;2023-08-21T06:18:28;102279.66;;;19.84;nan
42111;BME280;27766;52.174;5.456;2023-08-21T06:20:55;102275.34;;;20.03;nan
42111;BME280;27766;52.174;5.456;2023-08-21T06:23:23;102285.88;;;20.18;nan
42111;BME280;27766;52.174;5.456;2023-08-21T06:25:50;102286.75;;;20.33;nan
42111;BME280;27766;52.174;5.456;2023-08-21T06:28:17;102295.50;;;20.38;nan
42111;BME280;27766;52.174;5.456;2023-08-21T06:30:45;102291.97;;;20.51;nan
42111;BME280;27766;52.174;5.456;2023-08-21T06:33:13;102286.72;;;20.62;nan
42111;BME280;27766;52.174;5.456;2023-08-21T06:35:40;102299.88;;;20.73;nan
42111;BME280;27766;52.174;5.456;2023-08-21T06:38:07;102299.00;;;20.86;nan
42111;BME280;27766;52.174;5.456;2023-08-21T06:40:35;102294.59;;;20.96;nan
42111;BME280;27766;52.174;5.456;2023-08-21T06:43:03;102282.31;;;21.00;nan
42111;BME280;27766;52.174;5.456;2023-08-21T06:45:33;102296.31;;;21.10;nan
42111;BME280;27766;52.174;5.456;2023-08-21T06:48:00;102283.16;;;21.10;nan
42111;BME280;27766;52.174;5.456;2023-08-21T06:50:28;102292.78;;;21.17;nan
42111;BME280;27766;52.174;5.456;2023-08-21T06:52:56;102294.53;;;21.16;nan
42111;BME280;27766;52.174;5.456;2023-08-21T06:55:23;102284.91;;;21.14;nan
42111;BME280;27766;52.174;5.456;2023-08-21T06:57:50;102293.63;;;21.24;nan
42111;BME280;27766;52.174;5.456;2023-08-21T07:00:18;102297.06;;;21.44;nan
42111;BME280;27766;52.174;5.456;2023-08-21T07:02:46;102293.53;;;21.59;nan
42111;BME280;27766;52.174;5.456;2023-08-21T07:05:13;102294.28;;;21.78;nan
42111;BME280;27766;52.174;5.456;2023-08-21T07:07:41;102299.50;;;21.89;nan
42111;BME280;27766;52.174;5.456;2023-08-21T07:10:08;102302.13;;;21.88;nan
42111;BME280;27766;52.174;5.456;2023-08-21T07:12:36;102298.56;;;21.93;nan
42111;BME280;27766;52.174;5.456;2023-08-21T07:15:04;102295.03;;;21.99;nan
42111;BME280;27766;52.174;5.456;2023-08-21T07:17:31;102299.41;;;22.05;nan
42111;BME280;27766;52.174;5.456;2023-08-21T07:19:59;102291.44;;;22.08;nan
42111;BME280;27766;52.174;5.456;2023-08-21T07:22:28;102294.97;;;22.08;nan
42111;BME280;27766;52.174;5.456;2023-08-21T07:24:56;102302.00;;;22.08;nan
42111;BME280;27766;52.174;5.456;2023-08-21T07:27:23;102294.03;;;22.16;nan
42111;BME280;27766;52.174;5.456;2023-08-21T07:29:50;102294.00;;;22.19;nan
42111;BME280;27766;52.174;5.456;2023-08-21T07:32:17;102301.94;;;22.17;nan
42111;BME280;27766;52.174;5.456;2023-08-21T07:34:45;102298.41;;;22.15;nan
42111;BME280;27766;52.174;5.456;2023-08-21T07:37:13;102304.56;;;22.17;nan
42111;BME280;27766;52.174;5.456;2023-08-21T07:39:40;102303.72;;;22.13;nan
42111;BME280;27766;52.174;5.456;2023-08-21T07:42:07;102305.41;;;22.21;nan
42111;BME280;27766;52.174;5.456;2023-08-21T07:44:35;102307.13;;;22.29;nan
42111;BME280;27766;52.174;5.456;2023-08-21T07:47:02;102302.72;;;22.33;nan
42111;BME280;27766;52.174;5.456;2023-08-21T07:49:31;102304.47;;;22.28;nan
42111;BME280;27766;52.174;5.456;2023-08-21T07:51:58;102310.59;;;22.35;nan
42111;BME280;27766;52.174;5.456;2023-08-21T07:54:26;102306.16;;;22.41;nan
42111;BME280;27766;52.174;5.456;2023-08-21T07:56:53;102316.69;;;22.48;nan
42111;BME280;27766;52.174;5.456;2023-08-21T07:59:21;102310.38;;;22.63;nan
42111;BME280;27766;52.174;5.456;2023-08-21T08:01:49;102308.84;;;22.34;nan
42111;BME280;27766;52.174;5.456;2023-08-21T08:04:17;102313.13;;;22.52;nan
42111;BME280;27766;52.174;5.456;2023-08-21T08:06:44;102309.59;;;22.50;nan
42111;BME280;27766;52.174;5.456;2023-08-21T08:09:12;102306.09;;;22.51;nan
42111;BME280;27766;52.174;5.456;2023-08-21T08:11:39;102310.47;;;22.55;nan
42111;BME280;27766;52.174;5.456;2023-08-21T08:14:06;102314.88;;;22.50;nan
42111;BME280;27766;52.174;5.456;2023-08-21T08:16:33;102313.13;;;22.52;nan
42111;BME280;27766;52.174;5.456;2023-08-21T08:19:01;102314.00;;;22.52;nan
42111;BME280;27766;52.174;5.456;2023-08-21T08:21:28;102325.44;;;22.50;nan
42111;BME280;27766;52.174;5.456;2023-08-21T08:23:56;102321.91;;;22.54;nan
42111;BME280;27766;52.174;5.456;2023-08-21T08:26:24;102325.34;;;22.62;nan
42111;BME280;27766;52.174;5.456;2023-08-21T08:28:51;102320.81;;;22.76;nan
42111;BME280;27766;52.174;5.456;2023-08-21T08:31:20;102318.09;;;22.86;nan
42111;BME280;27766;52.174;5.456;2023-08-21T08:33:48;102309.28;;;22.85;nan
42111;BME280;27766;52.174;5.456;2023-08-21T08:36:15;102317.94;;;23.01;nan
42111;BME280;27766;52.174;5.456;2023-08-21T08:38:43;102317.88;;;23.06;nan
42111;BME280;27766;52.174;5.456;2023-08-21T08:41:13;102315.25;;;23.04;nan
42111;BME280;27766;52.174;5.456;2023-08-21T08:43:41;102316.94;;;23.13;nan
42111;BME280;27766;52.174;5.456;2023-08-21T08:46:10;102324.84;;;23.13;nan
42111;BME280;27766;52.174;5.456;2023-08-21T08:48:38;102326.56;;;23.17;nan
42111;BME280;27766;52.174;5.456;2023-08-21T08:51:06;102330.75;;;23.35;nan
42111;BME280;27766;52.174;5.456;2023-08-21T08:53:33;102327.19;;;23.38;nan
42111;BME280;27766;52.174;5.456;2023-08-21T08:56:01;102318.34;;;23.44;nan
42111;BME280;27766;52.174;5.456;2023-08-21T08:58:30;102323.69;;;23.39;nan
42111;BME280;27766;52.174;5.456;2023-08-21T09:00:57;102314.00;;;23.39;nan
42111;BME280;27766;52.174;5.456;2023-08-21T09:03:24;102316.44;;;23.53;nan
42111;BME280;27766;52.174;5.456;2023-08-21T09:05:52;102311.00;;;23.64;nan
42111;BME280;27766;52.174;5.456;2023-08-21T09:08:19;102304.78;;;23.70;nan
42111;BME280;27766;52.174;5.456;2023-08-21T09:10:46;102314.50;;;23.69;nan
42111;BME280;27766;52.174;5.456;2023-08-21T09:13:16;102309.78;;;23.93;nan
42111;BME280;27766;52.174;5.456;2023-08-21T09:15:46;102305.16;;;24.08;nan
42111;BME280;27766;52.174;5.456;2023-08-21T09:18:16;102300.63;;;24.14;nan
42111;BME280;27766;52.174;5.456;2023-08-21T09:20:44;102304.88;;;24.25;nan
42111;BME280;27766;52.174;5.456;2023-08-21T09:23:15;102305.59;;;24.34;nan
42111;BME280;27766;52.174;5.456;2023-08-21T09:25:45;102304.84;;;24.26;nan
42111;BME280;27766;52.174;5.456;2023-08-21T09:28:20;102304.09;;;24.18;nan
42111;BME280;27766;52.174;5.456;2023-08-21T09:30:52;102309.25;;;24.27;nan
42111;BME280;27766;52.174;5.456;2023-08-21T09:33:21;102300.31;;;24.34;nan
42111;BME280;27766;52.174;5.456;2023-08-21T09:35:53;102311.78;;;24.33;nan
42111;BME280;27766;52.174;5.456;2023-08-21T09:38:22;102307.41;;;24.32;nan
42111;BME280;27766;52.174;5.456;2023-08-21T09:40:51;102303.97;;;24.26;nan
42111;BME280;27766;52.174;5.456;2023-08-21T09:43:20;102306.56;;;24.30;nan
42111;BME280;27766;52.174;5.456;2023-08-21T09:45:51;102304.72;;;24.34;nan
42111;BME280;27766;52.174;5.456;2023-08-21T09:48:22;102296.16;;;24.20;nan
42111;BME280;27766;52.174;5.456;2023-08-21T09:50:56;102295.63;;;24.50;nan
42111;BME280;27766;52.174;5.456;2023-08-21T09:53:24;102291.50;;;24.86;nan
42111;BME280;27766;52.174;5.456;2023-08-21T09:55:55;102285.03;;;25.01;nan
42111;BME280;27766;52.174;5.456;2023-08-21T09:58:22;102288.63;;;24.96;nan
42111;BME280;27766;52.174;5.456;2023-08-21T10:00:51;102297.38;;;25.02;nan
42111;BME280;27766;52.174;5.456;2023-08-21T10:03:23;102293.75;;;25.06;nan
42111;BME280;27766;52.174;5.456;2023-08-21T10:05:55;102292.09;;;25.02;nan
42111;BME280;27766;52.174;5.456;2023-08-21T10:08:25;102288.28;;;25.15;nan
42111;BME280;27766;52.174;5.456;2023-08-21T10:10:53;102289.94;;;25.19;nan
42111;BME280;27766;52.174;5.456;2023-08-21T10:13:22;102284.72;;;25.15;nan
42111;BME280;27766;52.174;5.456;2023-08-21T10:15:49;102283.91;;;25.12;nan
42111;BME280;27766;52.174;5.456;2023-08-21T10:18:23;102282.56;;;25.34;nan
42111;BME280;27766;52.174;5.456;2023-08-21T10:20:52;102277.28;;;25.34;nan
42111;BME280;27766;52.174;5.456;2023-08-21T10:23:27;102268.91;;;25.54;nan
42111;BME280;27766;52.174;5.456;2023-08-21T10:26:00;102282.56;;;25.35;nan
42111;BME280;27766;52.174;5.456;2023-08-21T10:28:49;102274.47;;;25.43;nan
42111;BME280;27766;52.174;5.456;2023-08-21T10:34:08;102279.72;;;25.44;nan
42111;BME280;27766;52.174;5.456;2023-08-21T10:42:02;102291.88;;;25.11;nan
42111;BME280;27766;52.174;5.456;2023-08-21T10:44:37;102286.25;;;25.26;nan
42111;BME280;27766;52.174;5.456;2023-08-21T10:49:50;102284.88;;;25.08;nan
42111;BME280;27766;52.174;5.456;2023-08-21T10:52:22;102290.75;;;25.23;nan
42111;BME280;27766;52.174;5.456;2023-08-21T10:54:52;102282.50;;;25.40;nan
42111;BME280;27766;52.174;5.456;2023-08-21T10:57:22;102285.97;;;25.42;nan
42111;BME280;27766;52.174;5.456;2023-08-21T10:59:53;102284.22;;;25.41;nan
42111;BME280;27766;52.174;5.456;2023-08-21T11:02:21;102273.66;;;25.39;nan
42111;BME280;27766;52.174;5.456;2023-08-21T11:04:50;102284.19;;;25.42;nan
42111;BME280;27766;52.174;5.456;2023-08-21T11:07:18;102271.66;;;25.49;nan
42111;BME280;27766;52.174;5.456;2023-08-21T11:09:45;102278.66;;;25.53;nan
42111;BME280;27766;52.174;5.456;2023-08-21T11:12:15;102278.66;;;25.53;nan
42111;BME280;27766;52.174;5.456;2023-08-21T11:14:43;102280.53;;;25.48;nan
42111;BME280;27766;52.174;5.456;2023-08-21T11:17:10;102282.91;;;25.60;nan
42111;BME280;27766;52.174;5.456;2023-08-21T11:19:39;102263.38;;;25.66;nan
42111;BME280;27766;52.174;5.456;2023-08-21T11:22:06;102263.91;;;25.79;nan
42111;BME280;27766;52.174;5.456;2023-08-21T11:27:04;102263.56;;;25.95;nan
42111;BME280;27766;52.174;5.456;2023-08-21T11:29:43;102264.91;;;25.75;nan
42111;BME280;27766;52.174;5.456;2023-08-21T11:32:22;102267.34;;;25.84;nan
42111;BME280;27766;52.174;5.456;2023-08-21T11:34:53;102260.78;;;26.01;nan
42111;BME280;27766;52.174;5.456;2023-08-21T11:37:22;102270.97;;;25.80;nan
42111;BME280;27766;52.174;5.456;2023-08-21T11:39:51;102257.97;;;25.71;nan
42111;BME280;27766;52.174;5.456;2023-08-21T11:42:29;102264.75;;;25.43;nan
42111;BME280;27766;52.174;5.456;2023-08-21T11:44:57;102265.06;;;25.26;nan
42111;BME280;27766;52.174;5.456;2023-08-21T11:47:31;102279.44;;;25.16;nan
42111;BME280;27766;52.174;5.456;2023-08-21T11:50:06;102272.66;;;25.01;nan
42111;BME280;27766;52.174;5.456;2023-08-21T11:52:33;102263.34;;;25.24;nan
42111;BME280;27766;52.174;5.456;2023-08-21T11:55:07;102258.81;;;25.29;nan
42111;BME280;27766;52.174;5.456;2023-08-21T11:57:35;102255.69;;;25.11;nan
42111;BME280;27766;52.174;5.456;2023-08-21T12:00:03;102253.16;;;25.48;nan
42111;BME280;27766;52.174;5.456;2023-08-21T12:02:32;102248.91;;;25.80;nan
42111;BME280;27766;52.174;5.456;2023-08-21T12:05:14;102255.59;;;25.96;nan
42111;BME280;27766;52.174;5.456;2023-08-21T12:07:41;102253.56;;;26.06;nan
42111;BME280;27766;52.174;5.456;2023-08-21T12:10:08;102256.81;;;26.19;nan
42111;BME280;27766;52.174;5.456;2023-08-21T12:12:36;102258.88;;;26.42;nan
42111;BME280;27766;52.174;5.456;2023-08-21T12:15:03;102251.16;;;26.66;nan
42111;BME280;27766;52.174;5.456;2023-08-21T12:17:31;102258.97;;;26.39;nan
42111;BME280;27766;52.174;5.456;2023-08-21T12:19:58;102253.25;;;26.54;nan
42111;BME280;27766;52.174;5.456;2023-08-21T12:22:27;102256.03;;;26.50;nan
42111;BME280;27766;52.174;5.456;2023-08-21T12:24:54;102249.16;;;26.74;nan
42111;BME280;27766;52.174;5.456;2023-08-21T12:27:21;102238.41;;;27.10;nan
42111;BME280;27766;52.174;5.456;2023-08-21T12:29:49;102243.69;;;27.12;nan
42111;BME280;27766;52.174;5.456;2023-08-21T12:32:16;102245.00;;;27.27;nan
42111;BME280;27766;52.174;5.456;2023-08-21T12:34:45;102245.34;;;27.16;nan
42111;BME280;27766;52.174;5.456;2023-08-21T12:37:12;102241.69;;;26.89;nan
42111;BME280;27766;52.174;5.456;2023-08-21T12:39:40;102243.28;;;26.30;nan
42111;BME280;27766;52.174;5.456;2023-08-21T12:42:08;102234.09;;;26.05;nan
42111;BME280;27766;52.174;5.456;2023-08-21T12:44:35;102237.69;;;26.04;nan
42111;BME280;27766;52.174;5.456;2023-08-21T12:47:02;102235.13;;;26.01;nan
42111;BME280;27766;52.174;5.456;2023-08-21T12:49:30;102232.56;;;25.97;nan
42111;BME280;27766;52.174;5.456;2023-08-21T12:51:58;102228.97;;;25.99;nan
42111;BME280;27766;52.174;5.456;2023-08-21T12:54:25;102226.00;;;26.13;nan
42111;BME280;27766;52.174;5.456;2023-08-21T12:56:52;102228.34;;;26.59;nan
42111;BME280;27766;52.174;5.456;2023-08-21T12:59:21;102233.00;;;26.83;nan
42111;BME280;27766;52.174;5.456;2023-08-21T13:01:48;102224.13;;;26.84;nan
42111;BME280;27766;52.174;5.456;2023-08-21T13:04:15;102230.72;;;27.31;nan
42111;BME280;27766;52.174;5.456;2023-08-21T13:06:43;102219.00;;;27.37;nan
42111;BME280;27766;52.174;5.456;2023-08-21T13:09:10;102231.72;;;26.97;nan
42111;BME280;27766;52.174;5.456;2023-08-21T13:11:37;102232.19;;;27.11;nan
42111;BME280;27766;52.174;5.456;2023-08-21T13:14:04;102219.81;;;27.69;nan
42111;BME280;27766;52.174;5.456;2023-08-21T13:16:32;102226.97;;;27.67;nan
42111;BME280;27766;52.174;5.456;2023-08-21T13:18:59;102233.22;;;27.06;nan
42111;BME280;27766;52.174;5.456;2023-08-21T13:21:26;102230.34;;;26.83;nan
42111;BME280;27766;52.174;5.456;2023-08-21T13:23:54;102234.00;;;26.46;nan
42111;BME280;27766;52.174;5.456;2023-08-21T13:26:21;102223.44;;;26.43;nan
42111;BME280;27766;52.174;5.456;2023-08-21T13:28:49;102216.19;;;26.17;nan